Aktualne dane pomiarowe

Uwaga, wersja testowa! Automatyczne pobieranie danych za pomocą narzędzi lub skryptów to umożliwiających jest zabronione.

Dane meteo z obszaru Polski uzyskane na podstawie depesz SYNOP pobieranych co godzinę z NWS. Najedź myszką na symbol przedstawiony w tabeli, aby uzyskać informacje co do jego znaczenia. Prosimy pamiętać, że to testowa wersja strony, która jeszcze nie jest ukończona. Stworzono również jest krótki FAQ dotyczący korzystania z tej podstrony Anomalie temperatury w chwili obecnej odniesione są do okresu referencyjnego 1951-2016. Okres ten będzie później zmieniony na 1981-2010. Kliknij ikonę aby pobrać plik CSV. Kliknij ikonę aby wygenerować mapę synoptyczną dla danego terminu.

Wybierz Datę:    

        

Lesko (12690)

Dane terminowe dla wybranej stacji. Kliknij datę, aby otrzymać dane z tego terminu dla wszystkich stacji.

TemperaturaZachmurzenieWiatrCiśnienieOpadyPogoda
 Data t td wb tx tn tg rh  Nt Nl Cl Cm Ch ws wd g1 g2 wx mslp ppp ch 24h 12h t ww ww w1 w2  
2019-08-08 23:00:00 14.9 13.6 14.0--- 9216.0wx-wx2wx--21015.3 965.8 0.4----22----
2019-08-08 22:00:00 15.1 13.5 14.0--- 9019.0wx-wx2wx--21015.2 965.7 0.6----22----
2019-08-08 21:00:00 15.9 13.6 14.3--- 8625.0wx-wxwx1wx--11015.1 965.7 1.2----22----
2019-08-08 20:00:00 16.6 13.1 14.2--- 8030.0wx-wx1wx---1014.6 965.4 1.1---------
2019-08-08 19:00:00 18.1 13.2 14.9--- 7320.0wx-wx2wx--21014.1 965.1 0.8---------
2019-08-08 18:00:00 19.8 13.3 15.6 24.2 18.7- 6635.0wxwxwxwx1wx--11013.1 964.5 0.0- 0.012------
2019-08-08 17:00:00 21.8 13.2 16.4--- 5835.0wx-wx1wx--11012.6 964.3 0.1---------
2019-08-08 16:00:00 22.9 11.9 16.2--- 5035.0wxwxwxwx3wx---1012.4 964.3 0.2---------
2019-08-08 15:00:00 23.9 13.1 17.2--- 5135.0wxwxwxwxwx3wx---1012.4 964.5 0.1---------
2019-08-08 14:00:00 24.1 13.0 17.2--- 5035.0wxwxwxwxwx3wx--31012.1 964.2 -0.3---------
2019-08-08 13:00:00 23.2 13.9 17.3--- 5635.0wxwxwxwx2wx--21012.1 964.1 0.2---------
2019-08-08 12:00:00 22.5 14.3 17.2--- 6035.0wxwxwxwx3wx-1331012.6 964.4 1.1- 0.06------
2019-08-08 11:00:00 20.8 14.7 16.8--- 6835.0wxwxwx3wx--31013.0 964.5 1.6---------
2019-08-08 10:00:00 20.6 14.5 16.6--- 6835.0wxwxwxwx4wx-941012.4 963.9 1.7---------
2019-08-08 09:00:00 19.9 14.7 16.4--- 7235.0wxwxwxwx5wx-1351011.9 963.3 1.8---------
2019-08-08 08:00:00 19.7 15.1 16.6--- 7535.0wxwxwxwx5wx-1051011.5 962.9 2.3---------
2019-08-08 07:00:00 19.1 14.8 16.2--- 7635.0wxwxwxwx6wx131361010.8 962.2 2.2---------
2019-08-08 06:00:00 19.1 16.1 17.0 22.4 17.9 18 8335.0wxwxwx3wx-931010.1 961.5 3.2 1.7 2.012wx-w1w2- 8.5
2019-08-08 05:00:00 18.3 16.8 17.2--- 9135.0wxwxwxwx2wx---1009.3 960.6 2.3---------
2019-08-08 04:00:00 18.0 16.5 16.9--- 9135.0wxwxwx1wx---1008.7 960.0 0.4---------
2019-08-08 03:00:00 20.1 17.3 18.1--- 8435.0wxwxwx4wx--41006.6 958.3 -1.0---wx-w1--
2019-08-08 02:00:00 19.6 17.6 18.2--- 8827.0wxwxwx3wx--31006.7 958.3 -0.8---wx-w1w2--
2019-08-08 01:00:00 22.2 16.9 18.6--- 7235.0wxwxwxwxwx4wx--41007.6 959.6 -0.1---wx---
2019-08-08 00:00:00 21.5 17.3 18.6--- 7735.0wx-wxwx3wx-831007.4 959.3 -0.4- 0.06------
2019-08-07 23:00:00 22.4 16.9 18.7--- 7135.0wx-wx2wx-821007.0 959.1 -1.1---------
2019-08-07 22:00:00 21.0 17.0 18.2--- 7835.0wx-wx2wx--21007.9 959.7 -1.1---------
2019-08-07 21:00:00 20.0 16.2 17.4--- 7935.0wx-wx2wx---1008.1 959.7 -1.2---------
2019-08-07 20:00:00 20.6 15.8 17.3--- 7435.0wx-wxwx2wx---1008.5 960.2 -1.2---------
2019-08-07 19:00:00 21.9 15.0 17.4--- 6535.0wxwxwxwx3wx---1008.9 960.8 -1.1---------
2019-08-07 18:00:00 20.9 16.7 18.0 27.2 20.6- 7735.0wxwxwxwx2wx-1221009.2 960.9 -0.9--12wx-w1w2--
2019-08-07 17:00:00 21.1 15.4 17.3--- 7035.0wxwxwxwx2wx--21009.7 961.4 -0.1---------
2019-08-07 16:00:00 21.3 15.2 17.3--- 6835.0wxwxwx2wx--21010.1 961.9 0.3---wx-w1--
2019-08-07 15:00:00 24.9 16.1 19.1--- 5835.0wxwxwx3wx-1231009.4 961.8 0.1---wx---
2019-08-07 14:00:00 25.2 15.5 18.9--- 5535.0wxwxwxwx5wx---1009.1 961.5 -0.9---------
2019-08-07 13:00:00 26.4 16.3 19.8--- 5435.0wxwxwxwx5wx101251009.0 961.6 -1.5---------
2019-08-07 12:00:00 26.7 16.3 19.9--- 5335.0wxwxwxwx7wx121271009.0 961.7 -1.4- 0.06------
2019-08-07 11:00:00 26.3 16.2 19.7--- 5435.0wxwxwxwx6wx-1161009.8 962.4 -0.8---------
2019-08-07 10:00:00 26.3 16.5 19.9--- 5535.0wxwxwxwx5wx101051010.6 963.1 -0.1---------
2019-08-07 09:00:00 26.1 15.2 19.1--- 5135.0wxwxwxwx4wx---1010.6 963.1 -0.2---------
2019-08-07 08:00:00 25.0 15.6 18.9--- 5635.0wxwxwxwx5wx--51010.9 963.2 -0.3---------
2019-08-07 07:00:00 23.5 15.8 18.4--- 6235.0wx-wx2wx--21011.1 963.2 -0.3---------
2019-08-07 06:00:00 21.8 15.9 17.9 21.8 17.4 16 6935.0wx-wxwx2wx--21011.5 963.3 0.0--12wx-w1- 9.4
2019-08-07 05:00:00 20.1 15.5 17.0--- 7535.0wxwxwxwxwx2wx--21012.0 963.5 0.4---------
2019-08-07 04:00:00 19.0 14.9 16.2--- 7735.0wxwxwxwxwx1wx---1012.2 963.5 0.3---------
2019-08-07 03:00:00 18.6 15.1 16.2--- 8035.0wxwxwxwx2wx--21012.1 963.3 -0.2---wx---
2019-08-07 02:00:00 18.5 15.0 16.1--- 8035.0wxwxwx1wx--11011.9 963.1 -0.6---wx---
2019-08-07 01:00:00 19.1 15.4 16.6--- 7935.0wx-wxwx3wx--31011.9 963.2 -0.7----22----
2019-08-07 00:00:00 19.0 15.5 16.6--- 8035.0wx-wxwx2wx--21012.2 963.5 -0.6- 0.06-22----
4.7 ms

 

Print Friendly, PDF & Email